Time;durP1;ratioP1;P1;durP2;ratioP2;P2;SDS_P1;SDS_P2;PMS_P1;PMS_P2;Temp;Humidity;BMP_temperature;BMP_pressure;BME280_temperature;BME280_humidity;BME280_pressure;Samples;Min_cycle;Max_cycle;Signal;HPM_P1;HPM_P2
2023/01/01 00:01:08;;;;;;;11.73;7.80;;;14.10;99.90;;;;;;5087826;28;20597;-82
2023/01/01 00:03:59;;;;;;;10.65;7.28;;;14.10;99.90;;;;;;5096211;28;20348;-81
2023/01/01 00:06:48;;;;;;;11.50;7.65;;;14.10;99.90;;;;;;5094084;27;20228;-81
2023/01/01 00:12:43;;;;;;;8.75;6.45;;;14.10;99.90;;;;;;5091329;27;20244;-81
2023/01/01 00:15:33;;;;;;;9.43;6.20;;;14.10;99.90;;;;;;5100973;27;20590;-83
2023/01/01 00:18:23;;;;;;;7.60;5.70;;;14.10;99.90;;;;;;5104812;27;20230;-81
2023/01/01 00:21:13;;;;;;;9.35;5.60;;;14.10;99.90;;;;;;5101030;28;20230;-81
2023/01/01 00:24:02;;;;;;;7.93;5.50;;;14.10;99.90;;;;;;5097557;28;20227;-82
2023/01/01 00:26:51;;;;;;;8.75;5.25;;;14.10;99.90;;;;;;5098979;27;20440;-81
2023/01/01 00:29:40;;;;;;;7.60;4.68;;;14.10;99.90;;;;;;5088002;27;20219;-81
2023/01/01 00:32:29;;;;;;;8.93;4.60;;;14.10;99.90;;;;;;5104197;27;20227;-81
2023/01/01 00:35:19;;;;;;;7.75;4.40;;;14.20;99.90;;;;;;5096514;27;20230;-81
2023/01/01 00:38:09;;;;;;;8.13;4.97;;;14.20;99.90;;;;;;5093745;28;20218;-82
2023/01/01 00:40:57;;;;;;;7.55;4.93;;;14.20;99.90;;;;;;5091647;28;20221;-81
2023/01/01 00:43:46;;;;;;;7.75;4.90;;;14.30;99.90;;;;;;5091155;28;20223;-81
2023/01/01 00:46:35;;;;;;;6.65;4.88;;;14.20;99.90;;;;;;5088737;27;20230;-81
2023/01/01 00:49:24;;;;;;;7.70;4.63;;;14.30;99.90;;;;;;5096437;27;20301;-81
2023/01/01 00:52:14;;;;;;;8.95;4.90;;;14.30;99.90;;;;;;5099496;27;20230;-82
2023/01/01 00:55:03;;;;;;;10.70;4.85;;;14.30;99.90;;;;;;5103684;28;20214;-82
2023/01/01 00:57:52;;;;;;;7.53;4.82;;;14.30;99.90;;;;;;5092705;28;20312;-81
2023/01/01 01:00:42;;;;;;;8.05;4.85;;;14.30;99.90;;;;;;5086374;27;20591;-81
2023/01/01 01:03:31;;;;;;;7.90;5.15;;;14.30;99.90;;;;;;5102425;28;20720;-82
2023/01/01 01:06:20;;;;;;;8.10;5.35;;;14.30;99.90;;;;;;5099977;27;20227;-84
2023/01/01 01:09:10;;;;;;;8.82;5.05;;;14.30;99.90;;;;;;5128654;27;20227;-82
2023/01/01 01:11:59;;;;;;;7.25;4.95;;;14.30;99.90;;;;;;5087489;28;20589;-82
2023/01/01 01:15:07;;;;;;;6.88;4.97;;;14.30;99.90;;;;;;5084193;28;20211;-80
2023/01/01 01:17:56;;;;;;;7.65;4.72;;;14.40;99.90;;;;;;5100803;28;21721;-81
2023/01/01 01:20:51;;;;;;;7.88;5.05;;;14.30;99.90;;;;;;5082911;28;20303;-81
2023/01/01 01:23:39;;;;;;;7.95;5.25;;;14.40;99.90;;;;;;5103395;27;20230;-81
2023/01/01 01:26:32;;;;;;;8.27;4.75;;;14.40;99.90;;;;;;5097256;28;20601;-81
2023/01/01 01:29:21;;;;;;;6.95;4.88;;;14.40;99.90;;;;;;5088239;28;20220;-81
2023/01/01 01:32:11;;;;;;;7.32;4.90;;;14.30;99.90;;;;;;5090395;28;20685;-82
2023/01/01 01:35:00;;;;;;;6.95;4.72;;;14.40;99.90;;;;;;5101170;27;20581;-81
2023/01/01 01:37:49;;;;;;;8.18;4.75;;;14.30;99.90;;;;;;5102223;27;20323;-81
2023/01/01 01:40:42;;;;;;;7.25;4.60;;;14.40;99.90;;;;;;5096927;27;20601;-81
2023/01/01 01:46:34;;;;;;;9.23;4.60;;;14.40;99.90;;;;;;5104978;27;20557;-79
2023/01/01 01:49:27;;;;;;;7.30;4.38;;;14.30;99.90;;;;;;5077603;28;20223;-77
2023/01/01 01:52:16;;;;;;;5.88;4.40;;;14.30;99.90;;;;;;5084155;28;20684;-79
2023/01/01 01:55:08;;;;;;;7.47;4.97;;;14.40;99.90;;;;;;5098484;28;20215;-78
2023/01/01 01:57:57;;;;;;;7.40;5.22;;;14.40;99.90;;;;;;5077681;28;20316;-80
2023/01/01 02:00:46;;;;;;;8.02;5.50;;;14.40;99.90;;;;;;5085496;28;20237;-78
2023/01/01 02:03:42;;;;;;;7.20;4.57;;;14.40;99.90;;;;;;5084919;28;20219;-78
2023/01/01 02:06:33;;;;;;;8.10;5.18;;;14.30;99.90;;;;;;5093103;28;20261;-78
2023/01/01 02:09:22;;;;;;;7.78;5.32;;;14.40;99.90;;;;;;5084041;28;20215;-78
2023/01/01 02:12:11;;;;;;;8.93;5.50;;;14.40;99.90;;;;;;5085920;28;20220;-78
2023/01/01 02:15:00;;;;;;;8.00;5.30;;;14.40;99.90;;;;;;5078272;28;20995;-77
2023/01/01 02:17:59;;;;;;;7.35;5.25;;;14.40;99.90;;;;;;5092730;28;20250;-78
2023/01/01 02:20:58;;;;;;;9.55;4.97;;;14.40;99.90;;;;;;5089784;28;20207;-78
2023/01/01 02:24:05;;;;;;;10.05;5.70;;;14.40;99.90;;;;;;5091446;28;20216;-78
2023/01/01 02:26:59;;;;;;;8.02;5.63;;;14.40;99.90;;;;;;5109421;28;20221;-79
2023/01/01 02:29:53;;;;;;;9.40;5.30;;;14.40;99.90;;;;;;5086892;28;20238;-78
2023/01/01 02:32:47;;;;;;;6.28;4.90;;;14.40;99.90;;;;;;5082380;28;20215;-79
2023/01/01 02:35:41;;;;;;;7.95;5.05;;;14.50;99.90;;;;;;5107847;28;20230;-78
2023/01/01 02:38:33;;;;;;;7.53;4.80;;;14.50;99.90;;;;;;5087170;28;20369;-78
2023/01/01 02:41:26;;;;;;;7.05;5.10;;;14.50;99.90;;;;;;5084196;28;20223;-78
2023/01/01 02:44:16;;;;;;;7.60;4.88;;;14.50;99.90;;;;;;5052254;28;20225;-79
2023/01/01 02:47:12;;;;;;;8.98;4.82;;;14.50;99.90;;;;;;5079225;28;20252;-78
2023/01/01 02:50:10;;;;;;;6.70;4.43;;;14.60;99.90;;;;;;5083775;28;20232;-78
2023/01/01 02:53:09;;;;;;;6.75;4.20;;;14.50;99.90;;;;;;5096507;28;20241;-78
2023/01/01 02:56:06;;;;;;;8.35;4.55;;;14.50;99.90;;;;;;5085578;28;20759;-78
2023/01/01 03:02:21;;;;;;;7.35;4.43;;;14.50;99.90;;;;;;5057103;28;20306;-79
2023/01/01 03:05:19;;;;;;;6.85;4.80;;;14.60;99.90;;;;;;5083314;28;20805;-78
2023/01/01 03:08:13;;;;;;;6.32;4.30;;;14.50;99.90;;;;;;5083182;28;20211;-79
2023/01/01 03:11:07;;;;;;;6.95;4.45;;;14.60;99.90;;;;;;5075046;28;20223;-78
2023/01/01 03:14:04;;;;;;;6.97;4.28;;;14.60;99.90;;;;;;5074751;28;20753;-78
2023/01/01 03:16:58;;;;;;;6.15;4.25;;;14.60;99.90;;;;;;5079161;28;20224;-78
2023/01/01 03:19:51;;;;;;;6.43;4.47;;;14.60;99.90;;;;;;5071259;28;20231;-79
2023/01/01 03:22:41;;;;;;;6.70;4.32;;;14.60;99.90;;;;;;5060206;28;20236;-78
2023/01/01 03:25:33;;;;;;;6.20;4.40;;;14.60;99.90;;;;;;5060863;28;20737;-79
2023/01/01 03:28:26;;;;;;;7.20;4.10;;;14.60;99.90;;;;;;5064308;28;20215;-79
2023/01/01 03:31:18;;;;;;;7.68;4.50;;;14.50;99.90;;;;;;5072213;28;20231;-78
2023/01/01 03:34:13;;;;;;;7.07;4.40;;;14.50;99.90;;;;;;5066049;28;20289;-78
2023/01/01 03:37:07;;;;;;;6.97;4.72;;;14.60;99.90;;;;;;5056261;28;20227;-77
2023/01/01 03:39:59;;;;;;;7.65;4.15;;;14.60;99.90;;;;;;5052243;28;20739;-77
2023/01/01 03:42:51;;;;;;;6.55;4.30;;;14.60;99.90;;;;;;5064520;28;20224;-78
2023/01/01 03:45:43;;;;;;;8.40;4.55;;;14.60;99.90;;;;;;5075555;28;20231;-78
2023/01/01 03:48:55;;;;;;;7.78;4.43;;;14.60;99.90;;;;;;5074333;28;20232;-78
2023/01/01 03:52:21;;;;;;;7.47;4.47;;;14.60;99.90;;;;;;5044540;28;20312;-79
2023/01/01 03:55:19;;;;;;;7.55;4.35;;;14.60;99.90;;;;;;5063388;28;20227;-78
2023/01/01 03:58:13;;;;;;;6.30;4.57;;;14.60;99.90;;;;;;5055622;28;20223;-78
2023/01/01 04:01:08;;;;;;;6.00;4.13;;;14.70;99.90;;;;;;5056276;28;20223;-78
2023/01/01 04:03:59;;;;;;;8.48;4.93;;;14.70;99.90;;;;;;5064948;28;20941;-78
2023/01/01 04:06:48;;;;;;;7.80;4.53;;;14.70;99.90;;;;;;5061591;28;20230;-78
2023/01/01 04:09:40;;;;;;;6.90;4.47;;;14.60;99.90;;;;;;5062392;28;20326;-78
2023/01/01 04:12:30;;;;;;;7.38;4.28;;;14.60;99.90;;;;;;5056017;28;20230;-79
2023/01/01 04:15:21;;;;;;;7.70;4.20;;;14.60;99.90;;;;;;5047786;28;20228;-80
2023/01/01 04:18:09;;;;;;;6.10;4.30;;;14.70;99.90;;;;;;5061383;28;20220;-81
2023/01/01 04:20:58;;;;;;;5.75;4.00;;;14.70;99.90;;;;;;5043812;28;20221;-78
2023/01/01 04:23:47;;;;;;;6.80;4.35;;;14.60;99.90;;;;;;5053461;28;20227;-78
2023/01/01 04:26:37;;;;;;;8.13;4.57;;;14.60;99.90;;;;;;5057113;28;20224;-79
2023/01/01 04:29:26;;;;;;;6.10;4.00;;;14.60;99.90;;;;;;5074360;28;20296;-78
2023/01/01 04:32:15;;;;;;;5.25;3.92;;;14.70;99.90;;;;;;5070167;28;20738;-79
2023/01/01 04:35:05;;;;;;;7.15;4.15;;;14.70;99.90;;;;;;5073266;28;20647;-78
2023/01/01 04:37:53;;;;;;;5.88;3.72;;;14.70;99.90;;;;;;5058483;28;20215;-78
2023/01/01 04:40:42;;;;;;;5.78;3.88;;;14.70;99.90;;;;;;5053369;28;20211;-78
2023/01/01 04:43:32;;;;;;;6.28;4.05;;;14.70;99.90;;;;;;5071082;28;20916;-79
2023/01/01 04:46:22;;;;;;;6.25;3.67;;;14.70;99.90;;;;;;5089401;28;20226;-78
2023/01/01 04:49:11;;;;;;;5.88;4.00;;;14.70;99.90;;;;;;5083423;28;20791;-79
2023/01/01 04:52:00;;;;;;;5.78;3.55;;;14.60;99.90;;;;;;5083920;28;21000;-78
2023/01/01 04:54:48;;;;;;;6.53;3.97;;;14.70;99.90;;;;;;5101337;28;20688;-78
2023/01/01 04:57:37;;;;;;;5.68;3.90;;;14.70;99.90;;;;;;5039640;28;20224;-79
2023/01/01 05:00:27;;;;;;;7.75;3.80;;;14.70;99.90;;;;;;5061077;28;20311;-78
2023/01/01 05:03:16;;;;;;;6.78;3.72;;;14.70;99.90;;;;;;5050847;28;20259;-78
2023/01/01 05:06:07;;;;;;;5.32;3.58;;;14.70;99.90;;;;;;5035345;28;20217;-78
2023/01/01 05:08:57;;;;;;;5.72;4.05;;;14.80;99.90;;;;;;5043389;28;20342;-78
2023/01/01 05:11:45;;;;;;;6.25;3.88;;;14.80;99.90;;;;;;5057044;28;20225;-82
2023/01/01 05:14:34;;;;;;;5.65;3.85;;;14.80;99.90;;;;;;5051551;28;20217;-77
2023/01/01 05:17:24;;;;;;;6.40;3.67;;;14.80;99.90;;;;;;5072784;28;20327;-78
2023/01/01 05:20:13;;;;;;;5.18;3.95;;;14.80;99.90;;;;;;5065854;28;20228;-77
2023/01/01 05:23:02;;;;;;;5.15;3.63;;;14.80;99.90;;;;;;5062614;28;20219;-78
2023/01/01 05:25:51;;;;;;;4.53;3.22;;;14.80;99.90;;;;;;5048210;28;20303;-82
2023/01/01 05:28:40;;;;;;;6.82;3.95;;;14.80;99.90;;;;;;5063736;28;20212;-77
2023/01/01 05:31:31;;;;;;;5.70;3.30;;;14.90;99.90;;;;;;5064652;28;20239;-78
2023/01/01 05:34:21;;;;;;;5.63;3.80;;;14.90;99.90;;;;;;5055543;28;20236;-77
2023/01/01 05:37:10;;;;;;;4.70;3.53;;;14.90;99.90;;;;;;5042020;28;20787;-77
2023/01/01 05:39:59;;;;;;;6.60;3.35;;;14.90;99.90;;;;;;5069535;28;20227;-78
2023/01/01 05:42:48;;;;;;;5.88;3.45;;;14.90;99.90;;;;;;5059410;28;20614;-78
2023/01/01 05:45:36;;;;;;;5.30;3.33;;;14.90;99.90;;;;;;5073831;28;20301;-77
2023/01/01 05:48:25;;;;;;;6.15;3.53;;;14.90;99.90;;;;;;5092270;28;20214;-78
2023/01/01 05:51:16;;;;;;;6.57;3.88;;;14.90;99.90;;;;;;5095052;28;20648;-77
2023/01/01 05:54:05;;;;;;;4.72;3.38;;;14.90;99.90;;;;;;5071495;28;20214;-77
2023/01/01 05:56:54;;;;;;;5.55;3.53;;;14.90;99.90;;;;;;5090135;28;20621;-76
2023/01/01 05:59:43;;;;;;;4.85;3.35;;;14.80;99.90;;;;;;5080677;28;20639;-77
2023/01/01 06:02:31;;;;;;;6.03;3.67;;;14.80;99.90;;;;;;5085011;28;20867;-76
2023/01/01 06:05:20;;;;;;;7.93;3.72;;;14.80;99.90;;;;;;5088872;28;20288;-77
2023/01/01 06:08:10;;;;;;;4.90;3.30;;;14.80;99.90;;;;;;5087938;28;20226;-77
2023/01/01 06:11:00;;;;;;;7.57;3.47;;;14.80;99.90;;;;;;5069441;28;20239;-77
2023/01/01 06:13:52;;;;;;;5.95;3.60;;;14.80;99.90;;;;;;5081232;28;20307;-77
2023/01/01 06:16:41;;;;;;;5.03;3.38;;;14.70;99.90;;;;;;5079913;28;20220;-77
2023/01/01 06:19:30;;;;;;;6.47;3.83;;;14.70;99.90;;;;;;5089646;28;20310;-77
2023/01/01 06:22:18;;;;;;;6.38;3.40;;;14.70;99.90;;;;;;5092036;28;20222;-76
2023/01/01 06:25:10;;;;;;;6.00;3.35;;;14.70;99.90;;;;;;5078443;28;20224;-78
2023/01/01 06:27:59;;;;;;;5.63;3.53;;;14.70;99.90;;;;;;5057467;28;20231;-78
2023/01/01 06:30:47;;;;;;;5.22;3.60;;;14.70;99.90;;;;;;5098538;28;20304;-78
2023/01/01 06:33:37;;;;;;;6.57;3.45;;;14.70;99.90;;;;;;5086417;28;20944;-77
2023/01/01 06:36:26;;;;;;;7.43;3.92;;;14.70;99.90;;;;;;5076617;28;20558;-76
2023/01/01 06:39:15;;;;;;;5.70;3.22;;;14.70;99.90;;;;;;5046329;28;20224;-77
2023/01/01 06:42:05;;;;;;;5.10;3.25;;;14.60;99.90;;;;;;5073785;28;20223;-76
2023/01/01 06:44:54;;;;;;;6.35;3.67;;;14.60;99.90;;;;;;5053749;28;20230;-77
2023/01/01 06:47:42;;;;;;;5.85;3.75;;;14.60;99.90;;;;;;5054438;28;20253;-76
2023/01/01 06:50:31;;;;;;;5.70;3.60;;;14.60;99.90;;;;;;5053850;28;20227;-78
2023/01/01 06:53:23;;;;;;;7.38;3.35;;;14.60;99.90;;;;;;5068256;28;20232;-78
2023/01/01 06:56:12;;;;;;;9.00;4.05;;;14.50;99.90;;;;;;5067583;28;20216;-77
2023/01/01 06:59:03;;;;;;;6.03;3.33;;;14.60;99.90;;;;;;5070552;28;20372;-77
2023/01/01 07:01:51;;;;;;;5.95;3.42;;;14.60;99.90;;;;;;5072898;28;20234;-77
2023/01/01 07:04:40;;;;;;;6.32;3.47;;;14.50;99.90;;;;;;5076933;28;20357;-77
2023/01/01 07:07:29;;;;;;;6.53;3.35;;;14.40;99.90;;;;;;5077259;28;20232;-78
2023/01/01 07:10:23;;;;;;;5.45;3.58;;;14.50;99.90;;;;;;5073721;28;20270;-80
2023/01/01 07:13:12;;;;;;;8.57;3.45;;;14.50;99.90;;;;;;5069277;28;20219;-81
2023/01/01 07:16:02;;;;;;;5.38;3.50;;;14.50;99.90;;;;;;5082160;28;20223;-78
2023/01/01 07:19:00;;;;;;;5.97;3.67;;;14.50;99.90;;;;;;5053187;28;20228;-77
2023/01/01 07:21:53;;;;;;;4.93;3.30;;;14.50;99.90;;;;;;5063891;28;20235;-76
2023/01/01 07:24:41;;;;;;;6.20;3.67;;;14.50;99.90;;;;;;5065686;28;20216;-77
2023/01/01 07:27:30;;;;;;;8.48;3.72;;;14.50;99.90;;;;;;5060642;28;20695;-78
2023/01/01 07:30:19;;;;;;;5.90;3.58;;;14.50;99.90;;;;;;5070622;28;20219;-77
2023/01/01 07:33:12;;;;;;;6.75;3.50;;;14.50;99.90;;;;;;5068208;28;20303;-77
2023/01/01 07:36:01;;;;;;;7.22;3.35;;;14.40;99.90;;;;;;5079230;28;20298;-77
2023/01/01 07:38:50;;;;;;;5.20;3.40;;;14.40;99.90;;;;;;5065858;28;20220;-77
2023/01/01 07:41:38;;;;;;;6.38;3.17;;;14.40;99.90;;;;;;5047718;28;20232;-77
2023/01/01 07:44:27;;;;;;;5.43;3.65;;;14.50;99.90;;;;;;5055460;28;20319;-77
2023/01/01 07:47:21;;;;;;;7.65;3.50;;;14.50;99.90;;;;;;5062528;28;20251;-77
2023/01/01 07:50:16;;;;;;;8.63;3.53;;;14.50;99.90;;;;;;5056032;28;20316;-77
2023/01/01 07:53:04;;;;;;;8.07;3.75;;;14.50;99.90;;;;;;5063622;28;20224;-79
2023/01/01 07:55:53;;;;;;;8.30;3.90;;;14.50;99.90;;;;;;5062257;28;20248;-79
2023/01/01 07:58:42;;;;;;;7.72;3.40;;;14.60;99.90;;;;;;5059852;28;20307;-78
2023/01/01 08:01:31;;;;;;;8.27;4.13;;;14.70;99.90;;;;;;5041812;28;20224;-77
2023/01/01 08:04:19;;;;;;;4.97;3.08;;;14.70;99.90;;;;;;5055457;28;20216;-77
2023/01/01 08:07:09;;;;;;;8.55;3.30;;;14.70;99.90;;;;;;5064982;28;20220;-77
2023/01/01 08:09:58;;;;;;;8.45;3.88;;;14.80;99.90;;;;;;5051419;28;20253;-77
2023/01/01 08:12:47;;;;;;;6.50;3.50;;;14.80;99.90;;;;;;5053962;28;20278;-77
2023/01/01 08:15:36;;;;;;;5.45;3.58;;;14.80;99.90;;;;;;5058798;28;20618;-77
2023/01/01 08:18:25;;;;;;;5.50;3.15;;;14.80;99.90;;;;;;5060440;28;20270;-78
2023/01/01 08:21:13;;;;;;;7.32;3.30;;;14.80;99.90;;;;;;5058571;28;20288;-77
2023/01/01 08:24:04;;;;;;;8.27;3.50;;;14.90;99.90;;;;;;5059401;28;20235;-77
2023/01/01 08:26:53;;;;;;;6.40;3.20;;;14.90;99.90;;;;;;5057221;28;20338;-77
2023/01/01 08:29:42;;;;;;;6.78;3.35;;;14.90;99.90;;;;;;5063480;28;20363;-77
2023/01/01 08:32:30;;;;;;;7.63;2.90;;;14.90;99.90;;;;;;5059719;28;20730;-77
2023/01/01 08:35:19;;;;;;;8.15;3.63;;;14.90;99.90;;;;;;5050146;28;20220;-77
2023/01/01 08:38:10;;;;;;;5.63;2.80;;;14.90;99.90;;;;;;5059209;28;20223;-76
2023/01/01 08:41:00;;;;;;;6.53;3.50;;;15.00;99.90;;;;;;5060966;28;20270;-78
2023/01/01 08:43:49;;;;;;;9.07;3.47;;;15.00;99.90;;;;;;5059049;28;20231;-78
2023/01/01 08:46:38;;;;;;;9.90;3.85;;;15.00;99.90;;;;;;5061256;28;20227;-77
2023/01/01 08:49:27;;;;;;;6.25;3.70;;;15.10;99.90;;;;;;5059305;28;20223;-77
2023/01/01 08:52:16;;;;;;;8.35;3.30;;;15.00;99.90;;;;;;5060212;28;20220;-78
2023/01/01 08:55:05;;;;;;;11.45;4.03;;;15.00;99.90;;;;;;5050007;28;20228;-77
2023/01/01 08:57:55;;;;;;;7.88;3.22;;;15.10;99.90;;;;;;5054054;28;20294;-77
2023/01/01 09:00:44;;;;;;;8.93;3.75;;;15.20;99.90;;;;;;5061349;28;20691;-77
2023/01/01 09:03:33;;;;;;;12.48;3.95;;;15.20;99.90;;;;;;5059880;28;20235;-76
2023/01/01 09:06:22;;;;;;;8.00;3.50;;;15.30;99.90;;;;;;5060983;28;20235;-77
2023/01/01 09:09:11;;;;;;;8.10;3.80;;;15.40;99.90;;;;;;5051302;28;20722;-77
2023/01/01 09:12:04;;;;;;;5.30;3.05;;;15.50;99.90;;;;;;5060958;28;20262;-76
2023/01/01 09:14:55;;;;;;;10.68;4.10;;;15.50;99.90;;;;;;5056247;28;20219;-77
2023/01/01 09:17:44;;;;;;;10.63;3.60;;;15.70;99.90;;;;;;5054580;28;20797;-78
2023/01/01 09:20:32;;;;;;;9.77;3.60;;;15.80;99.90;;;;;;5061615;28;20243;-78
2023/01/01 09:23:21;;;;;;;9.02;3.58;;;15.90;99.90;;;;;;5054576;28;20879;-77
2023/01/01 09:26:10;;;;;;;8.75;3.60;;;16.00;99.90;;;;;;5054376;28;20681;-76
2023/01/01 09:28:59;;;;;;;8.25;3.58;;;16.10;99.90;;;;;;5059862;28;20260;-78
2023/01/01 09:31:49;;;;;;;7.93;3.60;;;16.10;99.90;;;;;;5052199;28;20564;-77
2023/01/01 09:34:38;;;;;;;8.65;3.42;;;16.20;99.90;;;;;;5060971;28;20224;-77
2023/01/01 09:37:27;;;;;;;6.97;3.38;;;16.20;99.90;;;;;;5060538;28;20446;-76
2023/01/01 09:40:26;;;;;;;7.38;3.40;;;16.20;99.90;;;;;;5058800;28;20722;-76
2023/01/01 09:43:25;;;;;;;8.73;3.70;;;16.20;99.90;;;;;;5047260;28;20224;-77
2023/01/01 09:46:14;;;;;;;6.63;3.53;;;16.40;99.90;;;;;;5075052;28;20713;-77
2023/01/01 09:49:23;;;;;;;12.40;3.65;;;16.50;99.90;;;;;;5081935;28;20234;-78
2023/01/01 09:52:14;;;;;;;11.63;3.03;;;16.60;99.90;;;;;;5061078;28;20220;-79
2023/01/01 09:55:11;;;;;;;8.90;3.60;;;16.70;99.90;;;;;;5062344;28;20220;-78
2023/01/01 09:58:00;;;;;;;9.90;3.80;;;16.80;99.90;;;;;;5068043;28;20269;-79
2023/01/01 10:00:53;;;;;;;6.95;3.17;;;16.80;99.90;;;;;;5081340;28;20330;-78
2023/01/01 10:03:49;;;;;;;8.10;3.60;;;16.90;99.90;;;;;;5060508;28;20220;-79
2023/01/01 10:06:47;;;;;;;11.80;3.60;;;16.90;99.90;;;;;;5062499;28;20250;-78
2023/01/01 10:09:46;;;;;;;11.52;3.40;;;17.00;99.90;;;;;;5068572;28;20223;-78
2023/01/01 10:12:45;;;;;;;11.32;3.78;;;17.10;99.90;;;;;;5071322;28;20675;-78
2023/01/01 10:15:39;;;;;;;14.02;3.25;;;17.20;99.90;;;;;;5063640;28;20865;-78
2023/01/01 10:18:32;;;;;;;10.73;3.28;;;17.10;99.90;;;;;;5059047;28;20228;-79
2023/01/01 10:21:24;;;;;;;6.15;2.75;;;17.20;99.90;;;;;;5058864;28;20358;-79
2023/01/01 10:24:33;;;;;;;12.70;4.22;;;17.10;99.90;;;;;;5053457;28;20777;-78
2023/01/01 10:27:30;;;;;;;11.75;3.05;;;17.00;99.90;;;;;;5051020;28;20277;-79
2023/01/01 10:30:21;;;;;;;11.45;3.92;;;17.10;99.90;;;;;;5045948;28;20233;-77
2023/01/01 10:33:13;;;;;;;9.68;3.50;;;17.10;99.90;;;;;;5083990;28;20345;-77
2023/01/01 10:36:02;;;;;;;10.18;3.55;;;17.10;99.90;;;;;;5063355;28;20567;-77
2023/01/01 10:38:51;;;;;;;8.63;3.40;;;17.10;99.90;;;;;;5063755;28;20705;-78
2023/01/01 10:41:41;;;;;;;9.18;3.78;;;17.10;99.90;;;;;;5048283;28;20607;-77
2023/01/01 10:44:33;;;;;;;12.10;3.33;;;17.10;99.90;;;;;;5054743;28;20335;-76
2023/01/01 10:47:27;;;;;;;11.93;3.70;;;17.00;99.90;;;;;;5082676;28;20245;-78
2023/01/01 10:50:16;;;;;;;10.93;3.17;;;17.10;99.90;;;;;;5071617;28;20219;-78
2023/01/01 10:53:04;;;;;;;9.63;2.92;;;17.10;99.90;;;;;;5074939;28;20255;-78
2023/01/01 10:56:00;;;;;;;9.25;3.67;;;17.30;99.90;;;;;;5083603;28;20376;-78
2023/01/01 10:58:53;;;;;;;11.70;3.25;;;17.30;99.90;;;;;;5079121;28;20295;-78
2023/01/01 11:01:42;;;;;;;10.40;3.63;;;17.30;99.90;;;;;;5063670;28;20212;-78
2023/01/01 11:04:31;;;;;;;10.40;3.20;;;17.40;99.90;;;;;;5064310;28;20227;-83
2023/01/01 11:07:30;;;;;;;9.20;3.70;;;17.40;99.90;;;;;;5046424;28;20231;-80
2023/01/01 11:10:21;;;;;;;11.90;3.15;;;17.40;99.90;;;;;;5083448;28;20313;-81
2023/01/01 11:13:18;;;;;;;11.00;3.00;;;17.40;99.90;;;;;;5076474;28;20224;-77
2023/01/01 11:16:11;;;;;;;11.70;3.25;;;17.40;99.90;;;;;;5074207;28;20227;-77
2023/01/01 11:19:05;;;;;;;9.20;3.25;;;17.50;99.90;;;;;;5075248;28;20219;-77
2023/01/01 11:21:54;;;;;;;12.32;3.28;;;17.50;99.90;;;;;;5056158;28;20228;-77
2023/01/01 11:24:59;;;;;;;10.15;3.20;;;17.60;99.90;;;;;;5050899;28;20231;-78
2023/01/01 11:27:49;;;;;;;9.32;3.45;;;17.50;99.90;;;;;;5057896;28;20247;-77
2023/01/01 11:30:39;;;;;;;13.07;3.45;;;17.60;99.90;;;;;;5064125;28;20228;-78
2023/01/01 11:33:32;;;;;;;11.15;3.30;;;17.60;99.90;;;;;;5060832;28;20236;-78
2023/01/01 11:36:24;;;;;;;10.07;3.72;;;17.50;99.90;;;;;;5054557;28;20859;-77
2023/01/01 11:39:25;;;;;;;10.70;3.20;;;17.70;99.90;;;;;;5065907;28;20233;-78
2023/01/01 11:42:18;;;;;;;12.23;3.50;;;17.70;99.90;;;;;;5068934;28;20332;-77
2023/01/01 11:45:16;;;;;;;9.70;3.05;;;17.60;99.60;;;;;;5083026;28;20223;-78
2023/01/01 11:48:12;;;;;;;11.90;3.53;;;17.60;99.90;;;;;;5082875;28;20251;-79
2023/01/01 11:51:04;;;;;;;12.60;3.20;;;17.60;99.80;;;;;;5062896;28;20778;-77
2023/01/01 11:54:09;;;;;;;11.75;3.22;;;17.60;99.70;;;;;;5082086;28;20219;-78
2023/01/01 11:57:04;;;;;;;9.52;3.10;;;17.50;99.70;;;;;;5077341;28;20255;-78
2023/01/01 11:59:58;;;;;;;12.35;3.53;;;17.50;99.90;;;;;;5060693;28;20223;-79
2023/01/01 12:02:52;;;;;;;7.38;3.10;;;17.50;99.50;;;;;;5075007;28;20767;-78
2023/01/01 12:05:47;;;;;;;9.02;3.30;;;17.40;99.70;;;;;;5081747;28;20311;-79
2023/01/01 12:08:40;;;;;;;10.05;3.08;;;17.40;99.70;;;;;;5067391;28;20810;-77
2023/01/01 12:11:33;;;;;;;8.82;3.63;;;17.40;99.70;;;;;;5076988;28;20216;-77
2023/01/01 12:14:28;;;;;;;10.00;3.15;;;17.40;99.60;;;;;;5079669;28;20623;-79
2023/01/01 12:17:23;;;;;;;7.22;3.35;;;17.40;99.90;;;;;;5082380;28;20368;-78
2023/01/01 12:20:20;;;;;;;6.78;3.15;;;17.30;99.90;;;;;;5082483;28;20835;-78
2023/01/01 12:23:11;;;;;;;11.40;3.50;;;17.30;99.90;;;;;;5078522;28;20223;-80
2023/01/01 12:26:11;;;;;;;13.13;3.63;;;17.30;99.90;;;;;;5071533;28;20563;-76
2023/01/01 12:29:37;;;;;;;9.40;3.50;;;17.30;99.90;;;;;;5076271;28;20224;-78
2023/01/01 12:32:37;;;;;;;12.60;3.63;;;17.30;99.90;;;;;;5025856;28;20310;-78
2023/01/01 12:35:36;;;;;;;7.93;3.10;;;17.30;99.90;;;;;;5073803;28;20223;-79
2023/01/01 12:38:57;;;;;;;6.00;3.22;;;17.30;99.90;;;;;;5059817;28;20738;-77
2023/01/01 12:41:59;;;;;;;8.38;3.50;;;17.30;99.90;;;;;;5069485;28;20813;-79
2023/01/01 12:45:07;;;;;;;9.07;3.00;;;17.30;99.90;;;;;;5081005;28;20227;-78
2023/01/01 12:48:03;;;;;;;9.82;3.50;;;17.30;99.90;;;;;;5074265;28;20714;-80
2023/01/01 12:51:00;;;;;;;11.85;3.90;;;17.40;99.90;;;;;;5073222;28;20962;-80
2023/01/01 12:54:08;;;;;;;8.25;3.78;;;17.40;99.90;;;;;;5079424;28;20223;-78
2023/01/01 12:57:05;;;;;;;10.98;3.45;;;17.40;99.90;;;;;;5080729;28;20231;-80
2023/01/01 12:59:55;;;;;;;8.68;3.03;;;17.30;99.90;;;;;;5061699;28;20215;-80
2023/01/01 13:02:49;;;;;;;11.60;3.42;;;17.40;99.90;;;;;;5090370;28;20768;-77
2023/01/01 13:05:42;;;;;;;7.75;3.42;;;17.30;99.90;;;;;;5064401;28;20266;-79
2023/01/01 13:08:32;;;;;;;12.32;3.50;;;17.30;99.90;;;;;;5067904;28;20796;-77
2023/01/01 13:11:22;;;;;;;7.07;3.88;;;17.20;99.90;;;;;;5072011;28;20247;-77
2023/01/01 13:14:13;;;;;;;6.13;3.40;;;17.20;99.90;;;;;;5080048;28;20243;-77
2023/01/01 13:17:02;;;;;;;10.07;3.70;;;17.20;99.90;;;;;;5058778;28;20220;-77
2023/01/01 13:19:57;;;;;;;9.25;3.53;;;17.10;99.90;;;;;;5074241;28;20253;-78
2023/01/01 13:22:47;;;;;;;9.98;3.75;;;17.10;99.90;;;;;;5081101;28;20226;-78
2023/01/01 13:25:36;;;;;;;8.00;3.58;;;17.10;99.90;;;;;;5075614;28;21333;-77
2023/01/01 13:28:24;;;;;;;9.40;3.90;;;17.10;99.90;;;;;;5051246;28;20602;-77
2023/01/01 13:31:14;;;;;;;7.97;3.92;;;17.10;99.90;;;;;;5069576;28;20229;-77
2023/01/01 13:34:34;;;;;;;7.97;3.50;;;17.10;99.90;;;;;;5067739;28;20215;-78
2023/01/01 13:37:30;;;;;;;9.35;3.42;;;17.00;99.90;;;;;;5076508;28;20223;-79
2023/01/01 13:40:52;;;;;;;8.80;3.65;;;17.00;99.90;;;;;;5064453;28;20308;-79
2023/01/01 13:43:41;;;;;;;7.47;3.53;;;16.90;99.90;;;;;;5078817;28;20226;-78
2023/01/01 13:46:42;;;;;;;9.30;4.10;;;16.90;99.90;;;;;;5066271;28;20228;-78
2023/01/01 13:49:51;;;;;;;9.48;4.03;;;16.90;99.90;;;;;;5053127;28;20239;-78
2023/01/01 13:52:58;;;;;;;8.73;4.00;;;16.90;99.90;;;;;;5080949;28;20219;-77
2023/01/01 13:56:03;;;;;;;11.02;3.95;;;16.80;99.90;;;;;;5057406;28;20228;-77
2023/01/01 13:59:37;;;;;;;9.13;3.97;;;16.80;99.90;;;;;;5071317;28;20761;-77
2023/01/01 14:02:32;;;;;;;10.25;3.35;;;16.70;99.90;;;;;;5025339;28;20230;-77
2023/01/01 14:05:28;;;;;;;10.88;3.70;;;16.70;99.90;;;;;;5071491;28;20310;-77
2023/01/01 14:08:28;;;;;;;11.55;3.88;;;16.70;99.90;;;;;;5074038;28;20726;-77
2023/01/01 14:11:19;;;;;;;7.38;3.60;;;16.60;99.90;;;;;;5066936;28;20246;-78
2023/01/01 14:14:23;;;;;;;9.57;3.88;;;16.60;99.90;;;;;;5079185;28;20846;-77
2023/01/01 14:17:15;;;;;;;7.60;3.92;;;16.50;99.90;;;;;;5068764;28;20269;-77
2023/01/01 14:20:08;;;;;;;8.77;3.55;;;16.50;99.90;;;;;;5053998;28;20235;-81
2023/01/01 14:22:56;;;;;;;9.45;3.67;;;16.40;99.90;;;;;;5060889;28;20226;-78
2023/01/01 14:25:46;;;;;;;7.38;3.83;;;16.40;99.90;;;;;;5073828;28;20353;-78
2023/01/01 14:28:35;;;;;;;9.90;4.20;;;16.40;99.90;;;;;;5066360;28;20306;-79
2023/01/01 14:31:28;;;;;;;6.03;3.33;;;16.40;99.90;;;;;;5078688;28;20266;-78
2023/01/01 14:34:24;;;;;;;9.02;3.75;;;16.40;99.90;;;;;;5079768;28;20243;-77
2023/01/01 14:37:23;;;;;;;7.63;3.88;;;16.30;99.90;;;;;;5080023;28;20235;-80
2023/01/01 14:40:19;;;;;;;11.27;4.47;;;16.30;99.90;;;;;;5069467;28;21208;-81
2023/01/01 14:43:12;;;;;;;8.85;4.05;;;16.30;99.90;;;;;;5065333;28;20227;-81
2023/01/01 14:46:00;;;;;;;8.43;3.63;;;16.30;99.90;;;;;;5040705;28;21005;-79
2023/01/01 14:49:01;;;;;;;10.10;4.28;;;16.30;99.90;;;;;;5058996;28;20315;-81
2023/01/01 14:51:55;;;;;;;8.35;4.32;;;16.30;99.90;;;;;;5070701;28;20231;-82
2023/01/01 14:54:46;;;;;;;10.77;4.50;;;16.20;99.90;;;;;;5047100;28;20236;-81
2023/01/01 14:57:37;;;;;;;9.18;4.03;;;16.30;99.90;;;;;;5048423;28;20275;-86
2023/01/01 15:00:29;;;;;;;7.45;4.07;;;16.30;99.90;;;;;;5057839;28;20216;-82
2023/01/01 15:03:19;;;;;;;9.75;4.85;;;16.20;99.90;;;;;;5063234;28;20212;-82
2023/01/01 15:06:17;;;;;;;12.18;4.30;;;16.10;99.90;;;;;;5050489;28;20236;-82